Time;durP1;ratioP1;P1;durP2;ratioP2;P2;SDS_P1;SDS_P2;PMS_P1;PMS_P2;Temp;Humidity;BMP_temperature;BMP_pressure;BME280_temperature;BME280_humidity;BME280_pressure;Samples;Min_cycle;Max_cycle;Signal;HPM_P1;HPM_P2
2021/10/13 00:01:29;;;;;;;1.87;1.10;;;8.00;99.90;;;;;;5121452;22;20470;-45
2021/10/13 00:03:56;;;;;;;1.13;0.80;;;8.00;99.90;;;;;;5116560;28;20537;-47
2021/10/13 00:06:23;;;;;;;1.90;1.03;;;8.00;99.90;;;;;;5115961;22;20466;-41
2021/10/13 00:08:58;;;;;;;1.77;1.30;;;8.00;99.90;;;;;;5096464;28;20476;-44
2021/10/13 00:11:28;;;;;;;1.87;1.03;;;8.00;99.90;;;;;;5111183;22;20825;-42
2021/10/13 00:13:56;;;;;;;2.90;1.10;;;8.00;99.90;;;;;;5116822;28;20449;-40
2021/10/13 00:16:22;;;;;;;1.40;0.97;;;8.00;99.90;;;;;;5130093;22;20501;-45
2021/10/13 00:18:49;;;;;;;1.30;1.10;;;7.90;99.90;;;;;;5075716;28;20462;-47
2021/10/13 00:21:18;;;;;;;9.23;1.40;;;7.90;99.90;;;;;;5103207;22;20466;-49
2021/10/13 00:23:45;;;;;;;1.67;1.00;;;7.90;99.90;;;;;;5116094;28;20461;-50
2021/10/13 00:28:39;;;;;;;2.50;1.10;;;7.80;99.90;;;;;;5059711;22;20958;-49
2021/10/13 00:31:05;;;;;;;2.83;1.20;;;7.80;99.90;;;;;;5043353;28;20901;-47
2021/10/13 00:33:32;;;;;;;1.73;1.17;;;7.80;99.90;;;;;;5085326;22;20512;-49
2021/10/13 00:35:59;;;;;;;2.20;1.10;;;7.80;99.90;;;;;;5076235;28;20826;-46
2021/10/13 00:38:25;;;;;;;6.70;1.60;;;7.80;99.90;;;;;;5080960;22;20539;-47
2021/10/13 00:40:52;;;;;;;3.47;1.10;;;7.80;99.90;;;;;;5073928;28;20483;-48
2021/10/13 00:43:19;;;;;;;1.83;1.07;;;7.70;99.90;;;;;;5081850;22;20482;-46
2021/10/13 00:45:49;;;;;;;2.73;1.17;;;7.70;99.90;;;;;;5074287;28;20496;-46
2021/10/13 00:48:16;;;;;;;1.30;1.00;;;7.70;99.90;;;;;;5092788;22;20549;-43
2021/10/13 00:50:43;;;;;;;1.50;0.90;;;7.70;99.90;;;;;;5094971;28;20418;-46
2021/10/13 00:53:10;;;;;;;2.17;1.00;;;7.70;99.90;;;;;;5097516;22;20543;-43
2021/10/13 00:55:37;;;;;;;1.60;0.90;;;7.70;99.90;;;;;;5078338;28;20427;-43
2021/10/13 00:58:04;;;;;;;4.03;2.27;;;7.70;99.90;;;;;;5091457;22;20481;-47
2021/10/13 01:00:31;;;;;;;1.47;1.10;;;7.70;99.90;;;;;;5097969;28;20441;-45
2021/10/13 01:03:09;;;;;;;2.87;1.30;;;7.70;99.90;;;;;;5102206;22;20477;-47
2021/10/13 01:05:53;;;;;;;1.00;0.70;;;7.70;99.90;;;;;;5077978;28;20442;-49
2021/10/13 01:08:30;;;;;;;2.90;0.90;;;7.60;99.90;;;;;;5090769;22;20875;-46
2021/10/13 01:11:14;;;;;;;2.53;1.50;;;7.60;99.90;;;;;;5098170;28;20425;-45
2021/10/13 01:16:42;;;;;;;2.50;1.40;;;7.60;99.90;;;;;;5105677;22;20487;-47
2021/10/13 01:19:19;;;;;;;3.50;1.40;;;7.50;99.90;;;;;;5106797;22;20564;-43
2021/10/13 01:21:57;;;;;;;2.57;1.23;;;7.50;99.90;;;;;;5056495;28;20474;-51
2021/10/13 01:24:35;;;;;;;1.70;1.27;;;7.50;99.90;;;;;;5067993;22;20524;-44
2021/10/13 01:27:20;;;;;;;1.30;0.90;;;7.60;99.90;;;;;;5077159;28;20523;-42
2021/10/13 01:29:52;;;;;;;5.67;1.10;;;7.60;99.90;;;;;;5085269;22;20469;-49
2021/10/13 01:32:24;;;;;;;1.13;0.97;;;7.60;99.90;;;;;;5077713;28;20899;-46
2021/10/13 01:34:57;;;;;;;1.60;1.33;;;7.60;99.90;;;;;;5083565;22;20470;-48
2021/10/13 01:37:31;;;;;;;1.80;1.30;;;7.60;99.90;;;;;;5057412;28;20513;-43
2021/10/13 01:40:01;;;;;;;1.43;1.00;;;7.50;99.90;;;;;;5067363;22;20773;-44
2021/10/13 01:42:30;;;;;;;1.87;1.10;;;7.50;99.90;;;;;;5076362;28;20607;-47
2021/10/13 01:47:37;;;;;;;1.30;0.80;;;7.50;99.90;;;;;;5082564;22;20567;-45
2021/10/13 01:50:05;;;;;;;3.00;1.03;;;7.50;99.90;;;;;;5076789;28;20996;-48
2021/10/13 01:52:33;;;;;;;3.03;1.30;;;7.50;99.90;;;;;;5102604;22;21051;-44
2021/10/13 01:55:02;;;;;;;1.70;1.00;;;7.50;99.90;;;;;;5097058;28;20469;-48
2021/10/13 01:57:31;;;;;;;2.07;1.20;;;7.40;99.90;;;;;;5104060;22;20481;-51
2021/10/13 02:00:05;;;;;;;1.97;1.03;;;7.40;99.90;;;;;;5097037;28;20465;-45
2021/10/13 02:02:32;;;;;;;1.60;0.90;;;7.40;99.90;;;;;;5096577;22;20554;-49
2021/10/13 02:04:59;;;;;;;6.00;1.50;;;7.40;99.90;;;;;;5076790;28;20779;-49
2021/10/13 02:10:07;;;;;;;1.20;0.90;;;7.40;99.90;;;;;;5048088;26;20509;-45
2021/10/13 02:12:45;;;;;;;1.17;0.87;;;7.30;99.90;;;;;;5085873;22;20493;-44
2021/10/13 02:15:15;;;;;;;1.77;0.80;;;7.30;99.90;;;;;;5110248;28;20470;-45
2021/10/13 02:17:50;;;;;;;1.50;1.07;;;7.40;99.90;;;;;;5114203;22;20536;-43
2021/10/13 02:20:17;;;;;;;2.43;1.10;;;7.40;99.90;;;;;;5089881;28;20470;-49
2021/10/13 02:22:52;;;;;;;3.40;1.30;;;7.30;99.90;;;;;;5099739;22;20441;-45
2021/10/13 02:25:19;;;;;;;11.70;1.70;;;7.40;99.90;;;;;;5109150;28;20929;-46
2021/10/13 02:27:50;;;;;;;2.17;1.20;;;7.40;99.90;;;;;;5115949;22;20463;-45
2021/10/13 02:30:18;;;;;;;1.10;0.80;;;7.30;99.90;;;;;;5068690;28;20494;-47
2021/10/13 02:35:12;;;;;;;1.10;0.90;;;7.30;99.90;;;;;;5114934;22;20469;-48
2021/10/13 02:37:38;;;;;;;1.20;0.90;;;7.30;99.90;;;;;;5110040;28;20787;-46
2021/10/13 02:40:07;;;;;;;3.63;1.20;;;7.40;99.90;;;;;;5098533;22;20489;-49
2021/10/13 02:42:36;;;;;;;1.93;1.00;;;7.40;99.90;;;;;;5088409;28;20462;-48
2021/10/13 02:45:04;;;;;;;2.03;0.97;;;7.40;99.90;;;;;;5097446;22;20486;-47
2021/10/13 02:47:44;;;;;;;1.30;0.83;;;7.30;99.90;;;;;;5089572;28;20445;-47
2021/10/13 02:50:17;;;;;;;2.50;1.20;;;7.30;99.90;;;;;;5096827;22;20490;-46
2021/10/13 02:52:51;;;;;;;2.07;0.93;;;7.30;99.90;;;;;;5089615;28;21090;-43
2021/10/13 02:55:20;;;;;;;1.50;1.00;;;7.30;99.90;;;;;;5111987;22;20485;-43
2021/10/13 02:57:53;;;;;;;2.63;1.30;;;7.30;99.90;;;;;;5109715;28;20430;-44
2021/10/13 03:00:22;;;;;;;1.20;0.77;;;7.20;99.90;;;;;;5104745;22;20512;-49
2021/10/13 03:02:55;;;;;;;1.70;1.30;;;7.20;99.90;;;;;;5089642;28;20458;-46
2021/10/13 03:05:23;;;;;;;1.00;0.80;;;7.20;99.90;;;;;;5096592;22;20486;-48
2021/10/13 03:07:51;;;;;;;1.73;0.87;;;7.20;99.90;;;;;;5088963;28;20515;-44
2021/10/13 03:10:18;;;;;;;1.57;0.80;;;7.30;99.90;;;;;;5104674;22;20482;-45
2021/10/13 03:12:51;;;;;;;1.20;0.97;;;7.30;99.90;;;;;;5108957;28;20430;-47
2021/10/13 03:15:20;;;;;;;1.47;1.37;;;7.30;99.90;;;;;;5108923;28;20434;-44
2021/10/13 03:17:51;;;;;;;2.40;1.10;;;7.30;99.90;;;;;;5109400;28;20426;-47
2021/10/13 03:20:20;;;;;;;1.90;1.30;;;7.20;99.90;;;;;;5104833;22;20549;-46
2021/10/13 03:22:50;;;;;;;1.30;1.10;;;7.20;99.90;;;;;;5068489;28;20467;-44
2021/10/13 03:25:23;;;;;;;2.30;1.30;;;7.20;99.90;;;;;;5084453;22;20833;-44
2021/10/13 03:27:54;;;;;;;1.43;1.30;;;7.20;99.90;;;;;;5108587;28;20421;-46
2021/10/13 03:30:21;;;;;;;2.70;1.40;;;7.20;99.90;;;;;;5113465;22;20557;-47
2021/10/13 03:32:50;;;;;;;2.97;1.40;;;7.10;99.90;;;;;;5090114;28;20492;-43
2021/10/13 03:35:24;;;;;;;1.63;1.30;;;7.10;99.90;;;;;;5098770;22;20438;-45
2021/10/13 03:37:51;;;;;;;1.17;0.90;;;7.10;99.90;;;;;;5091127;22;20520;-42
2021/10/13 03:40:19;;;;;;;2.47;1.20;;;7.00;99.90;;;;;;5089252;28;20473;-44
2021/10/13 03:42:45;;;;;;;1.40;1.17;;;7.00;99.90;;;;;;5108631;22;20546;-46
2021/10/13 03:45:13;;;;;;;1.87;1.00;;;7.00;99.90;;;;;;5108894;28;20449;-45
2021/10/13 03:47:40;;;;;;;1.53;1.40;;;7.00;99.90;;;;;;5107686;22;20524;-48
2021/10/13 03:50:10;;;;;;;2.83;1.40;;;6.90;99.90;;;;;;5088829;28;20486;-42
2021/10/13 03:52:37;;;;;;;1.97;1.20;;;7.00;99.90;;;;;;5103794;22;20508;-43
2021/10/13 03:55:04;;;;;;;1.73;1.50;;;7.00;99.90;;;;;;5109342;28;20449;-47
2021/10/13 03:57:31;;;;;;;1.77;1.10;;;7.00;99.90;;;;;;5107518;22;20509;-45
2021/10/13 03:59:58;;;;;;;3.10;0.90;;;7.00;99.90;;;;;;5070032;28;20455;-45
2021/10/13 04:02:25;;;;;;;1.80;1.23;;;7.00;99.90;;;;;;5081424;22;20518;-46
2021/10/13 04:04:51;;;;;;;2.43;1.10;;;7.00;99.90;;;;;;5109830;28;20422;-45
2021/10/13 04:09:45;;;;;;;2.43;1.03;;;7.00;99.90;;;;;;5090730;22;20482;-45
2021/10/13 04:12:12;;;;;;;3.17;1.70;;;7.00;99.90;;;;;;5088737;28;20224;-42
2021/10/13 04:14:38;;;;;;;6.20;1.73;;;7.00;99.90;;;;;;5114367;22;20511;-49
2021/10/13 04:17:05;;;;;;;2.43;1.40;;;6.90;99.90;;;;;;5108681;28;20487;-46
2021/10/13 04:19:41;;;;;;;2.23;1.20;;;6.90;99.90;;;;;;5101512;22;21036;-46
2021/10/13 04:22:09;;;;;;;1.70;1.00;;;6.90;99.90;;;;;;5087178;28;20489;-49
2021/10/13 04:24:36;;;;;;;1.83;1.37;;;6.90;99.90;;;;;;5108556;22;20481;-42
2021/10/13 04:27:04;;;;;;;2.43;1.33;;;7.00;99.90;;;;;;5108392;28;20511;-48
2021/10/13 04:29:31;;;;;;;1.70;1.23;;;7.00;99.90;;;;;;5105747;22;20482;-47
2021/10/13 04:31:59;;;;;;;2.10;0.97;;;7.00;99.90;;;;;;5088561;28;20493;-49
2021/10/13 04:34:26;;;;;;;3.60;1.60;;;7.10;99.90;;;;;;5104777;22;20484;-48
2021/10/13 04:36:53;;;;;;;1.57;1.20;;;7.10;99.90;;;;;;5108328;28;20465;-48
2021/10/13 04:39:19;;;;;;;10.40;1.70;;;7.20;99.90;;;;;;5120113;22;20521;-52
2021/10/13 04:41:46;;;;;;;2.40;1.60;;;7.30;99.90;;;;;;5067621;28;20497;-44
2021/10/13 04:44:14;;;;;;;1.47;1.20;;;7.30;99.90;;;;;;5067812;28;20436;-50
2021/10/13 04:46:41;;;;;;;2.83;1.20;;;7.40;99.90;;;;;;5067280;28;20505;-51
2021/10/13 04:49:07;;;;;;;1.97;1.47;;;7.40;99.90;;;;;;5068075;28;20436;-47
2021/10/13 04:51:34;;;;;;;1.93;1.63;;;7.50;99.90;;;;;;5068199;28;20497;-49
2021/10/13 04:54:01;;;;;;;2.27;1.33;;;7.50;99.90;;;;;;5068461;28;20868;-48
2021/10/13 04:56:27;;;;;;;1.73;1.30;;;7.40;99.90;;;;;;5068703;28;20455;-47
2021/10/13 04:58:54;;;;;;;1.93;1.20;;;7.40;99.90;;;;;;5069013;28;20478;-45
2021/10/13 05:01:22;;;;;;;2.77;1.77;;;7.40;99.90;;;;;;5069060;28;20450;-44
2021/10/13 05:03:49;;;;;;;2.80;1.50;;;7.40;99.90;;;;;;5070168;28;20479;-44
2021/10/13 05:06:15;;;;;;;3.17;2.37;;;7.40;99.90;;;;;;5069652;28;20456;-45
2021/10/13 05:08:42;;;;;;;2.53;1.70;;;7.30;99.90;;;;;;5070173;28;20473;-47
2021/10/13 05:11:08;;;;;;;2.57;1.83;;;7.30;99.90;;;;;;5068729;28;20470;-45
2021/10/13 05:13:35;;;;;;;2.57;1.53;;;7.20;99.90;;;;;;5069200;28;20459;-45
2021/10/13 05:16:02;;;;;;;4.23;2.23;;;7.30;99.90;;;;;;5069507;28;20448;-48
2021/10/13 05:18:30;;;;;;;3.60;2.20;;;7.20;99.90;;;;;;5069498;28;20475;-44
2021/10/13 05:20:59;;;;;;;3.33;1.70;;;7.30;99.90;;;;;;5068798;28;20490;-48
2021/10/13 05:23:26;;;;;;;2.87;1.70;;;7.20;99.90;;;;;;5069571;28;20486;-47
2021/10/13 05:25:53;;;;;;;2.57;1.70;;;7.30;99.90;;;;;;5069216;28;20439;-48
2021/10/13 05:28:19;;;;;;;7.23;1.30;;;7.30;99.90;;;;;;5069758;28;20858;-43
2021/10/13 05:30:46;;;;;;;3.43;2.10;;;7.20;99.90;;;;;;5068761;28;20442;-47
2021/10/13 05:33:13;;;;;;;2.43;2.07;;;7.10;99.90;;;;;;5069169;28;20544;-42
2021/10/13 05:35:41;;;;;;;2.07;1.40;;;7.10;99.90;;;;;;5069566;28;20505;-47
2021/10/13 05:38:08;;;;;;;4.20;1.33;;;7.10;99.90;;;;;;5070309;28;20844;-46
2021/10/13 05:40:37;;;;;;;2.90;2.03;;;7.10;99.90;;;;;;5072791;28;20451;-43
2021/10/13 05:43:04;;;;;;;2.70;1.43;;;7.10;99.90;;;;;;5073122;28;20491;-43
2021/10/13 05:45:30;;;;;;;5.20;2.20;;;7.00;99.90;;;;;;5073138;28;20489;-48
2021/10/13 05:47:57;;;;;;;3.87;1.70;;;7.00;99.90;;;;;;5072796;28;20467;-45
2021/10/13 05:50:23;;;;;;;3.10;1.87;;;7.10;99.90;;;;;;5071882;28;20443;-45
2021/10/13 05:52:52;;;;;;;2.90;2.67;;;7.10;99.90;;;;;;5071865;28;20467;-47
2021/10/13 05:55:18;;;;;;;3.33;1.60;;;7.10;99.90;;;;;;5071381;28;20435;-45
2021/10/13 05:57:45;;;;;;;2.83;1.37;;;7.10;99.90;;;;;;5071334;28;20469;-45
2021/10/13 06:00:13;;;;;;;1.80;1.50;;;7.00;99.90;;;;;;5071828;28;20501;-44
2021/10/13 06:02:40;;;;;;;5.03;1.40;;;7.10;99.90;;;;;;5071753;28;20545;-44
2021/10/13 06:05:07;;;;;;;2.83;1.93;;;7.10;99.90;;;;;;5071606;28;20427;-48
2021/10/13 06:07:34;;;;;;;2.40;1.73;;;7.20;99.90;;;;;;5070760;28;20447;-48
2021/10/13 06:10:03;;;;;;;5.83;1.83;;;7.20;99.90;;;;;;5071615;28;20459;-43
2021/10/13 06:12:30;;;;;;;5.50;3.20;;;7.30;99.90;;;;;;5070333;28;20489;-49
2021/10/13 06:14:56;;;;;;;7.53;2.33;;;7.40;99.90;;;;;;5070338;28;20497;-45
2021/10/13 06:17:23;;;;;;;4.03;2.13;;;7.40;99.90;;;;;;5071045;28;20455;-46
2021/10/13 06:19:50;;;;;;;6.00;2.30;;;7.40;99.90;;;;;;5071309;28;20455;-43
2021/10/13 06:22:16;;;;;;;5.67;2.73;;;7.50;99.90;;;;;;5070955;28;20444;-47
2021/10/13 06:24:49;;;;;;;6.93;2.30;;;7.60;99.90;;;;;;5071323;28;20982;-43
2021/10/13 06:27:17;;;;;;;2.70;2.00;;;7.60;99.90;;;;;;5070621;28;20436;-47
2021/10/13 06:29:43;;;;;;;2.40;1.50;;;7.70;99.90;;;;;;5070577;28;20463;-43
2021/10/13 06:32:10;;;;;;;3.37;2.33;;;7.70;99.90;;;;;;5070538;28;20521;-44
2021/10/13 06:34:37;;;;;;;4.10;2.70;;;7.70;99.90;;;;;;5070154;28;20497;-46
2021/10/13 06:37:04;;;;;;;4.63;2.00;;;7.70;99.90;;;;;;5069313;28;20444;-46
2021/10/13 06:39:30;;;;;;;7.30;2.63;;;7.80;99.90;;;;;;5069930;28;20524;-46
2021/10/13 06:41:59;;;;;;;3.90;2.33;;;7.90;99.90;;;;;;5069248;28;20443;-49
2021/10/13 06:44:27;;;;;;;4.53;3.63;;;7.90;99.90;;;;;;5068697;28;20494;-42
2021/10/13 06:46:54;;;;;;;7.60;2.27;;;8.00;99.90;;;;;;5068892;28;20458;-47
2021/10/13 06:49:21;;;;;;;3.40;2.10;;;8.00;99.90;;;;;;5069208;28;20497;-43
2021/10/13 06:51:47;;;;;;;2.80;1.97;;;8.00;99.90;;;;;;5069044;28;20466;-46
2021/10/13 06:54:15;;;;;;;2.70;2.00;;;8.00;99.90;;;;;;5068367;28;20494;-45
2021/10/13 06:56:42;;;;;;;3.97;2.30;;;8.00;99.90;;;;;;5069004;28;20517;-47
2021/10/13 06:59:09;;;;;;;3.73;2.17;;;8.10;99.90;;;;;;5067467;28;20479;-44
2021/10/13 07:01:37;;;;;;;2.70;2.30;;;8.10;99.90;;;;;;5067235;28;20455;-45
2021/10/13 07:04:04;;;;;;;3.27;2.13;;;8.20;99.90;;;;;;5067594;28;20493;-51
2021/10/13 07:06:30;;;;;;;5.00;2.40;;;8.30;99.90;;;;;;5068276;28;20481;-43
2021/10/13 07:08:57;;;;;;;3.33;1.80;;;8.30;99.90;;;;;;5066981;28;20463;-47
2021/10/13 07:11:24;;;;;;;3.90;2.23;;;8.40;99.90;;;;;;5067588;28;20447;-44
2021/10/13 07:13:51;;;;;;;4.77;2.43;;;8.50;99.90;;;;;;5067247;28;20538;-45
2021/10/13 07:16:18;;;;;;;4.50;1.80;;;8.50;99.90;;;;;;5067211;28;20428;-43
2021/10/13 07:18:46;;;;;;;4.87;2.03;;;8.50;99.90;;;;;;5066399;28;20459;-45
2021/10/13 07:21:13;;;;;;;4.23;1.90;;;8.70;99.90;;;;;;5067194;28;20485;-44
2021/10/13 07:23:39;;;;;;;3.13;2.10;;;8.70;99.90;;;;;;5067282;28;20483;-42
2021/10/13 07:26:06;;;;;;;11.40;3.37;;;8.80;99.90;;;;;;5065799;28;20455;-46
2021/10/13 07:28:38;;;;;;;3.33;2.17;;;8.90;99.90;;;;;;5065822;28;20983;-49
2021/10/13 07:31:05;;;;;;;4.03;3.27;;;9.00;99.90;;;;;;5065037;28;20431;-48
2021/10/13 07:33:32;;;;;;;3.07;2.10;;;9.00;99.90;;;;;;5066893;28;20470;-46
2021/10/13 07:36:00;;;;;;;4.17;2.40;;;8.90;99.90;;;;;;5067869;28;20451;-47
2021/10/13 07:38:27;;;;;;;3.00;1.90;;;8.80;99.90;;;;;;5067817;28;20443;-48
2021/10/13 07:40:54;;;;;;;3.70;2.00;;;8.70;99.90;;;;;;5066714;28;20546;-43
2021/10/13 07:43:20;;;;;;;5.17;2.90;;;8.80;99.90;;;;;;5066820;28;20486;-45
2021/10/13 07:45:47;;;;;;;3.80;2.90;;;8.80;99.90;;;;;;5066040;28;20471;-44
2021/10/13 07:48:14;;;;;;;7.20;2.20;;;8.70;99.90;;;;;;5064433;28;20447;-46
2021/10/13 07:50:41;;;;;;;3.63;1.90;;;8.90;99.90;;;;;;5064466;28;20524;-47
2021/10/13 07:53:09;;;;;;;3.30;2.07;;;9.00;99.90;;;;;;5063855;28;20447;-47
2021/10/13 07:55:36;;;;;;;6.30;2.83;;;9.10;99.90;;;;;;5064552;28;20874;-47
2021/10/13 07:58:03;;;;;;;4.70;2.13;;;9.10;99.90;;;;;;5064655;28;20447;-44
2021/10/13 08:00:29;;;;;;;4.20;2.87;;;9.10;99.90;;;;;;5063233;28;20482;-51
2021/10/13 08:02:56;;;;;;;3.00;2.20;;;9.20;99.90;;;;;;5063762;28;20439;-45
2021/10/13 08:05:23;;;;;;;4.13;2.40;;;9.30;99.90;;;;;;5064892;28;20475;-44
2021/10/13 08:07:49;;;;;;;3.30;2.33;;;9.40;99.90;;;;;;5064058;28;20471;-47
2021/10/13 08:10:18;;;;;;;3.50;2.43;;;9.50;99.90;;;;;;5063864;28;20479;-46
2021/10/13 08:12:44;;;;;;;5.43;2.70;;;9.50;99.90;;;;;;5063565;28;20443;-47
2021/10/13 08:15:16;;;;;;;5.10;2.33;;;9.50;99.90;;;;;;5063420;28;20470;-47
2021/10/13 08:17:43;;;;;;;3.60;2.10;;;9.60;99.90;;;;;;5063563;28;20907;-52
2021/10/13 08:20:10;;;;;;;4.63;2.67;;;9.70;99.90;;;;;;5063850;28;20475;-46
2021/10/13 08:22:48;;;;;;;3.90;2.93;;;9.70;99.90;;;;;;5063118;28;20477;-47
2021/10/13 08:25:18;;;;;;;5.07;2.20;;;9.70;99.90;;;;;;5062837;28;20491;-47
2021/10/13 08:27:53;;;;;;;6.17;2.47;;;9.70;99.90;;;;;;5062285;28;20471;-40
2021/10/13 08:30:22;;;;;;;5.97;2.13;;;9.70;99.90;;;;;;5062347;28;20466;-47
2021/10/13 08:32:49;;;;;;;5.03;2.97;;;9.70;99.90;;;;;;5062188;28;20541;-44
2021/10/13 08:35:17;;;;;;;4.83;2.63;;;9.80;99.90;;;;;;5061817;28;20787;-49
2021/10/13 08:37:44;;;;;;;3.67;2.37;;;9.80;99.90;;;;;;5060931;28;20437;-50
2021/10/13 08:40:12;;;;;;;3.47;2.00;;;9.90;99.90;;;;;;5060235;28;20467;-46
2021/10/13 08:42:52;;;;;;;7.80;3.60;;;10.00;99.90;;;;;;5060565;28;20448;-48
2021/10/13 08:45:21;;;;;;;11.83;2.77;;;10.10;99.90;;;;;;5060438;28;20554;-47
2021/10/13 08:47:52;;;;;;;4.60;2.30;;;10.20;99.90;;;;;;5061915;28;20435;-47
2021/10/13 08:50:19;;;;;;;4.30;2.23;;;10.20;99.90;;;;;;5060805;28;20534;-45
2021/10/13 08:52:53;;;;;;;4.27;1.90;;;10.20;99.90;;;;;;5061878;28;20436;-47
2021/10/13 08:55:25;;;;;;;3.17;2.20;;;10.30;99.90;;;;;;5060919;28;20522;-47
2021/10/13 08:58:09;;;;;;;4.47;1.73;;;10.30;99.90;;;;;;5060348;28;20965;-47
2021/10/13 09:00:47;;;;;;;4.00;2.30;;;10.50;99.90;;;;;;5065402;22;20440;-50
2021/10/13 09:03:31;;;;;;;5.20;2.60;;;10.70;99.90;;;;;;5073509;28;20461;-47
2021/10/13 09:06:30;;;;;;;3.50;2.23;;;11.00;99.90;;;;;;5085833;22;20883;-51
2021/10/13 09:09:08;;;;;;;3.20;1.93;;;11.30;99.90;;;;;;5092995;28;20511;-45
2021/10/13 09:11:44;;;;;;;3.70;2.27;;;11.50;99.90;;;;;;5091339;22;20482;-48
2021/10/13 09:14:20;;;;;;;2.77;1.90;;;11.60;99.90;;;;;;5068322;28;20422;-45
2021/10/13 09:17:10;;;;;;;3.00;2.27;;;11.50;99.90;;;;;;5081161;22;20567;-43
2021/10/13 09:19:43;;;;;;;2.63;1.80;;;11.60;99.90;;;;;;5078741;28;20465;-48
2021/10/13 09:22:10;;;;;;;4.00;2.30;;;12.20;99.90;;;;;;5098778;22;20494;-47
2021/10/13 09:24:46;;;;;;;3.80;1.60;;;13.00;99.90;;;;;;5101217;28;20948;-47
2021/10/13 09:27:21;;;;;;;4.20;1.73;;;13.50;99.90;;;;;;5101879;22;20511;-52
2021/10/13 09:29:59;;;;;;;7.23;2.90;;;13.50;99.90;;;;;;5081843;28;20445;-48
2021/10/13 09:32:27;;;;;;;3.63;2.43;;;13.60;99.90;;;;;;5097871;22;20493;-49
2021/10/13 09:34:58;;;;;;;3.70;2.27;;;14.10;99.90;;;;;;5101679;28;20926;-45
2021/10/13 09:37:46;;;;;;;2.90;1.83;;;15.00;99.90;;;;;;5102072;22;20485;-45
2021/10/13 09:40:26;;;;;;;6.93;2.57;;;16.20;99.90;;;;;;5080299;28;20926;-47
2021/10/13 09:42:58;;;;;;;3.43;2.03;;;17.80;99.90;;;;;;5096897;22;20557;-50
2021/10/13 09:45:28;;;;;;;6.67;2.70;;;18.80;99.90;;;;;;5100483;28;20475;-48
2021/10/13 09:48:15;;;;;;;;;;;;;;;;;;;;;
2021/10/13 09:50:50;;;;;;;4.13;2.50;;;20.10;92.10;;;;;;5099464;28;20457;-47
2021/10/13 09:53:19;;;;;;;2.33;1.87;;;20.40;88.80;;;;;;5099974;28;20433;-45
2021/10/13 09:55:46;;;;;;;3.47;2.40;;;20.50;85.00;;;;;;5100067;28;20469;-49
2021/10/13 09:58:26;;;;;;;2.80;2.10;;;20.40;82.10;;;;;;5100161;28;20446;-46
2021/10/13 10:01:11;;;;;;;2.47;1.77;;;20.40;81.60;;;;;;5099749;28;20872;-51
2021/10/13 10:03:41;;;;;;;5.30;1.87;;;20.80;80.90;;;;;;5099241;28;20483;-47
2021/10/13 10:06:10;;;;;;;3.23;1.50;;;20.90;79.40;;;;;;5099431;28;20430;-47
2021/10/13 10:08:59;;;;;;;4.10;2.27;;;21.20;77.30;;;;;;5099135;28;20460;-52
2021/10/13 10:11:28;;;;;;;3.00;2.00;;;21.60;77.20;;;;;;5092963;22;20487;-44
2021/10/13 10:13:58;;;;;;;2.73;1.60;;;21.70;72.20;;;;;;5067812;28;20419;-44
2021/10/13 10:16:34;;;;;;;2.47;1.60;;;21.80;72.40;;;;;;5078691;22;20487;-48
2021/10/13 10:19:21;;;;;;;2.30;1.70;;;21.90;70.70;;;;;;5071536;28;20760;-44
2021/10/13 10:21:53;;;;;;;4.23;2.33;;;21.60;70.00;;;;;;5069395;28;20430;-46
2021/10/13 10:24:28;;;;;;;2.40;2.00;;;21.50;70.90;;;;;;5067802;28;20922;-48
2021/10/13 10:27:25;;;;;;;2.90;2.00;;;21.40;70.50;;;;;;5079345;22;20482;-47
2021/10/13 10:30:20;;;;;;;2.13;1.90;;;21.20;71.50;;;;;;5078215;28;20457;-43
2021/10/13 10:33:16;;;;;;;10.10;6.53;;;21.10;71.00;;;;;;5070074;22;20491;-53
2021/10/13 10:35:44;;;;;;;4.63;3.33;;;21.10;73.30;;;;;;5058192;28;20511;-47
2021/10/13 10:38:17;;;;;;;2.93;2.23;;;21.00;72.10;;;;;;5083356;22;20485;-47
2021/10/13 10:40:50;;;;;;;3.40;1.70;;;20.80;71.20;;;;;;5079347;28;20554;-49
2021/10/13 10:43:23;;;;;;;3.40;1.73;;;20.60;73.20;;;;;;5103336;22;20489;-46
2021/10/13 10:45:51;;;;;;;2.67;2.37;;;20.50;73.80;;;;;;5099808;28;20481;-46
2021/10/13 10:48:21;;;;;;;3.93;2.13;;;20.40;74.20;;;;;;5076710;22;20566;-44
2021/10/13 10:50:58;;;;;;;3.13;2.23;;;20.10;73.20;;;;;;5058909;28;20922;-48
2021/10/13 10:53:30;;;;;;;2.97;1.50;;;19.30;74.80;;;;;;5058940;28;20474;-47
2021/10/13 10:56:17;;;;;;;3.60;2.17;;;19.00;77.00;;;;;;5067050;22;20894;-52
2021/10/13 10:58:59;;;;;;;2.40;2.00;;;18.70;77.10;;;;;;5056847;28;20482;-46
2021/10/13 11:01:26;;;;;;;2.03;1.60;;;17.90;80.30;;;;;;5029587;22;1157977;-45
2021/10/13 11:03:55;;;;;;;4.80;2.47;;;17.50;82.10;;;;;;5091436;28;20474;-47
2021/10/13 11:06:24;;;;;;;4.30;2.23;;;17.00;84.30;;;;;;5090385;22;20458;-46
2021/10/13 11:08:56;;;;;;;2.10;1.60;;;16.50;86.30;;;;;;5048060;28;20464;-46
2021/10/13 11:13:55;;;;;;;4.03;2.30;;;16.00;90.10;;;;;;5077121;22;20494;-52
2021/10/13 11:16:22;;;;;;;2.80;1.70;;;15.90;91.60;;;;;;5066980;28;20203;-45
2021/10/13 11:18:49;;;;;;;2.30;1.73;;;15.70;92.90;;;;;;5102086;22;20492;-49
2021/10/13 11:21:17;;;;;;;4.33;1.87;;;15.60;93.60;;;;;;5099001;28;20575;-48
2021/10/13 11:23:47;;;;;;;2.57;2.20;;;15.40;94.30;;;;;;5106967;22;21034;-48
2021/10/13 11:26:14;;;;;;;2.50;1.90;;;14.90;95.80;;;;;;5100481;28;20473;-47
2021/10/13 11:28:42;;;;;;;2.93;1.50;;;14.70;98.50;;;;;;5081354;22;20495;-43
2021/10/13 11:31:10;;;;;;;1.83;1.30;;;14.60;99.90;;;;;;5059819;28;20447;-48
2021/10/13 11:33:38;;;;;;;3.20;1.90;;;14.50;99.90;;;;;;5089196;22;20500;-46
2021/10/13 11:36:08;;;;;;;2.43;1.37;;;14.40;99.90;;;;;;5096423;28;20462;-47
2021/10/13 11:38:41;;;;;;;4.50;2.23;;;14.40;99.90;;;;;;5080973;22;20522;-47
2021/10/13 11:41:11;;;;;;;3.20;1.80;;;14.30;99.90;;;;;;5048068;28;20423;-45
2021/10/13 11:43:41;;;;;;;2.03;1.20;;;14.40;99.90;;;;;;5067684;22;20501;-49
2021/10/13 11:46:17;;;;;;;2.10;1.57;;;14.40;99.90;;;;;;5078686;28;20516;-50
2021/10/13 11:48:44;;;;;;;4.03;2.13;;;14.40;99.90;;;;;;5078926;22;20541;-48
2021/10/13 11:51:14;;;;;;;3.40;1.77;;;14.40;99.90;;;;;;5058113;28;20431;-44
2021/10/13 11:53:42;;;;;;;2.17;1.30;;;14.50;99.90;;;;;;5070066;22;20500;-48
2021/10/13 11:56:11;;;;;;;2.10;1.53;;;14.40;99.90;;;;;;5079206;28;20496;-46
2021/10/13 11:58:39;;;;;;;2.93;2.50;;;14.50;99.90;;;;;;5087189;22;20769;-49
2021/10/13 12:01:06;;;;;;;4.13;2.30;;;14.50;99.90;;;;;;5054795;28;20500;-48
2021/10/13 12:03:38;;;;;;;2.70;2.10;;;14.50;99.90;;;;;;5093052;22;20442;-44
2021/10/13 12:06:07;;;;;;;2.20;1.77;;;14.30;99.90;;;;;;5057389;28;20522;-43
2021/10/13 12:11:10;;;;;;;3.53;1.97;;;14.20;99.90;;;;;;5103977;22;20949;-51
2021/10/13 12:13:39;;;;;;;2.57;1.70;;;14.20;99.90;;;;;;5098736;28;20420;-48
2021/10/13 12:16:08;;;;;;;3.90;2.57;;;14.20;99.90;;;;;;5091412;22;20490;-46
2021/10/13 12:18:37;;;;;;;4.87;2.10;;;14.20;99.90;;;;;;5067256;28;20459;-46
2021/10/13 12:21:10;;;;;;;3.33;2.03;;;14.20;99.90;;;;;;5109967;22;20490;-47
2021/10/13 12:23:42;;;;;;;1.60;1.47;;;14.20;99.90;;;;;;5083587;28;20426;-48
2021/10/13 12:26:16;;;;;;;3.03;2.00;;;14.10;99.90;;;;;;5127990;22;21085;-50
2021/10/13 12:28:45;;;;;;;3.33;2.23;;;14.00;99.90;;;;;;5090870;28;20490;-51
2021/10/13 12:31:14;;;;;;;3.47;2.37;;;14.10;99.90;;;;;;5087735;22;20494;-56
2021/10/13 12:33:46;;;;;;;4.10;2.30;;;14.20;99.90;;;;;;5064931;28;20930;-45
2021/10/13 12:36:17;;;;;;;3.60;2.10;;;14.40;99.90;;;;;;5092455;22;20562;-48
2021/10/13 12:38:49;;;;;;;3.17;1.80;;;14.40;99.90;;;;;;5096747;28;20786;-51
2021/10/13 12:41:18;;;;;;;2.40;1.73;;;14.50;99.90;;;;;;5094435;22;20838;-48
2021/10/13 12:43:46;;;;;;;2.93;2.20;;;14.60;99.90;;;;;;5078736;28;20465;-47
2021/10/13 12:46:33;;;;;;;2.60;2.37;;;14.70;99.90;;;;;;5094227;22;20825;-50
2021/10/13 12:49:11;;;;;;;3.30;1.73;;;14.90;99.90;;;;;;5101113;28;20441;-53
2021/10/13 12:51:49;;;;;;;4.33;2.40;;;14.70;99.90;;;;;;5095437;22;20547;-49
2021/10/13 12:54:15;;;;;;;3.10;1.93;;;14.60;99.90;;;;;;5076043;28;20469;-45
2021/10/13 12:56:44;;;;;;;2.67;1.73;;;14.30;99.90;;;;;;5085848;22;20498;-45
2021/10/13 12:59:10;;;;;;;2.40;1.47;;;14.10;99.90;;;;;;5077624;28;20438;-51
2021/10/13 13:01:39;;;;;;;3.80;2.10;;;14.20;99.90;;;;;;5080218;22;20479;-47
2021/10/13 13:04:05;;;;;;;2.13;1.80;;;14.30;99.90;;;;;;5068222;28;20449;-49
2021/10/13 13:06:32;;;;;;;3.60;2.07;;;14.30;99.90;;;;;;5093350;22;20483;-47
2021/10/13 13:09:00;;;;;;;2.60;1.60;;;14.10;99.90;;;;;;5062056;28;20967;-51
2021/10/13 13:11:33;;;;;;;2.03;1.50;;;14.20;99.90;;;;;;5074138;22;20442;-47
2021/10/13 13:14:01;;;;;;;3.90;2.20;;;14.20;99.90;;;;;;5102715;28;20479;-49
2021/10/13 13:16:28;;;;;;;2.30;1.70;;;14.10;99.90;;;;;;5113081;22;20441;-47
2021/10/13 13:18:55;;;;;;;3.80;1.37;;;14.10;99.90;;;;;;5084473;28;20488;-45
2021/10/13 13:21:23;;;;;;;5.77;2.10;;;14.10;99.90;;;;;;5081494;28;20437;-49
2021/10/13 13:23:51;;;;;;;4.30;1.40;;;14.20;99.90;;;;;;5105047;22;20485;-47
2021/10/13 13:26:18;;;;;;;3.80;1.73;;;14.20;99.90;;;;;;5090329;28;20482;-55
2021/10/13 13:28:45;;;;;;;1.83;1.30;;;14.30;99.90;;;;;;5087244;22;20482;-50
2021/10/13 13:31:14;;;;;;;1.63;1.13;;;14.30;99.90;;;;;;5076909;28;20462;-51